Elandra Spruce — V7JM5 — position and weather

sailwx.info

Track history (hours):
 
Tides and Currents Weather Stations Pressure Air Temp Water Temp Dewpoint Dewpoint Depression Visibility Wind Speed Wind Dir Waves Ship Positions

Elandra Spruce

Last reported at 2017-Jun-22 21:36 UTC. Time now 2017-Jun-26 19:00 UTC.
Position N 52°24' E 004°47'.

Length 183 m; draft 8 m.

Type: Tanker. MMSI: 538006719.

Date/timePositionNaut miles runAvg speedWind from/ knotsBaromVisibWave heightAir tempDewpointWater temp
2017-Jun-22 21:36N 52°24' E 004°47'0 0.0
2017-Jun-22 21:27N 52°24' E 004°47'0 0.0
2017-Jun-22 21:00N 52°24' E 004°47'0 0.0
2017-Jun-22 20:30N 52°24' E 004°47'0 0.4
2017-Jun-22 20:01N 52°24' E 004°47'2 3.9
2017-Jun-22 19:30N 52°26' E 004°45'4 7.5
2017-Jun-22 19:01N 52°28' E 004°39'2 3.6
2017-Jun-22 18:31N 52°28' E 004°36'0 0.7
2017-Jun-22 18:01N 52°28' E 004°36'4 8.4
2017-Jun-22 17:30N 52°28' E 004°29'0 0.3
2017-Jun-22 17:00N 52°28' E 004°29'1 2.1
2017-Jun-22 16:30N 52°28' E 004°31'4 8.5
2017-Jun-22 16:00N 52°29' E 004°24'4 8.4
2017-Jun-22 15:30N 52°29' E 004°17'4 8.7
2017-Jun-22 15:00N 52°29' E 004°10'3 6.9
2017-Jun-22 14:30N 52°27' E 004°05'0 0.1
2017-Jun-22 13:28N 52°27' E 004°05'0 0.0
2017-Jun-22 12:58N 52°27' E 004°05'0 0.0
2017-Jun-22 12:28N 52°27' E 004°05'0 0.0
2017-Jun-22 11:58N 52°27' E 004°05'0 0.0
2017-Jun-22 11:28N 52°27' E 004°05'0 0.0
2017-Jun-22 10:58N 52°27' E 004°05'0 0.0
2017-Jun-22 10:28N 52°27' E 004°05'0 0.3
2017-Jun-22 09:58N 52°27' E 004°05'0 0.1
2017-Jun-22 09:28N 52°27' E 004°05'0 0.0
2017-Jun-22 08:55N 52°27' E 004°05'0 0.0
2017-Jun-22 08:28N 52°27' E 004°05'0 0.0
2017-Jun-22 07:58N 52°27' E 004°05'0 0.0
2017-Jun-22 07:28N 52°27' E 004°05'0 0.0
2017-Jun-22 06:49N 52°27' E 004°05'0 0.0
2017-Jun-22 06:28N 52°27' E 004°05'0 0.1
2017-Jun-22 05:58N 52°27' E 004°05'0 0.2
2017-Jun-22 05:28N 52°27' E 004°05'0 0.0
2017-Jun-22 04:58N 52°27' E 004°05'0 0.0
2017-Jun-22 04:28N 52°27' E 004°05'0 0.0
2017-Jun-22 03:58N 52°27' E 004°05'0 0.1
2017-Jun-22 03:28N 52°27' E 004°05'0 0.0
2017-Jun-22 02:58N 52°27' E 004°05'0 0.0
2017-Jun-22 02:28N 52°27' E 004°05'0 0.0
2017-Jun-22 01:58N 52°27' E 004°05'0 0.0
2017-Jun-22 01:28N 52°27' E 004°05'0 0.0
2017-Jun-22 00:58N 52°27' E 004°05'0 0.0
2017-Jun-22 00:25N 52°27' E 004°05'0 0.0
2017-Jun-21 23:58N 52°27' E 004°05'0 0.0
2017-Jun-21 23:28N 52°27' E 004°05'0 0.1
2017-Jun-21 22:58N 52°27' E 004°05'0 0.1
2017-Jun-21 22:28N 52°27' E 004°05'0 0.1
2017-Jun-21 21:58N 52°27' E 004°05'0 0.0
2017-Jun-21 21:25N 52°27' E 004°05'0 0.1
2017-Jun-21 20:58N 52°27' E 004°05'0 0.0
2017-Jun-21 20:28N 52°27' E 004°05'0 0.1
2017-Jun-21 19:58N 52°27' E 004°05'0 0.0
2017-Jun-21 19:28N 52°27' E 004°05'0 0.1
2017-Jun-21 18:52N 52°27' E 004°05'0 0.0
2017-Jun-21 18:28N 52°27' E 004°05'0 0.0
2017-Jun-21 17:52N 52°27' E 004°05'0 0.0
2017-Jun-21 17:19N 52°27' E 004°05'0 0.1
2017-Jun-21 16:55N 52°27' E 004°05'0 0.1
2017-Jun-21 16:25N 52°27' E 004°05'0 0.1
2017-Jun-21 15:58N 52°27' E 004°05'0 0.0
2017-Jun-21 15:28N 52°27' E 004°05'0 0.1
2017-Jun-21 14:58N 52°27' E 004°05'0 0.0
2017-Jun-21 13:58N 52°27' E 004°05'0 0.0
2017-Jun-21 13:28N 52°27' E 004°05'0 0.0
2017-Jun-21 12:55N 52°27' E 004°05'0 0.0
2017-Jun-21 12:28N 52°27' E 004°05'0 0.0
2017-Jun-21 11:58N 52°27' E 004°05'0 0.0
2017-Jun-21 11:28N 52°27' E 004°05'0 0.1
2017-Jun-21 10:52N 52°27' E 004°05'0 0.2
2017-Jun-21 10:28N 52°27' E 004°05'0 0.1
2017-Jun-21 09:58N 52°27' E 004°05'0 0.1
2017-Jun-21 09:25N 52°27' E 004°05'0 0.0
2017-Jun-21 08:58N 52°27' E 004°05'0 0.0
2017-Jun-21 08:28N 52°27' E 004°05'0 0.0
2017-Jun-21 07:55N 52°27' E 004°05'0 0.0
2017-Jun-21 07:28N 52°27' E 004°05'0 0.0
2017-Jun-21 06:58N 52°27' E 004°05'0 0.0
2017-Jun-21 06:28N 52°27' E 004°05'0 0.0
2017-Jun-21 05:58N 52°27' E 004°05'0 0.0
2017-Jun-21 05:28N 52°27' E 004°05'0 0.1
2017-Jun-21 04:58N 52°27' E 004°05'0 0.0
2017-Jun-21 04:25N 52°27' E 004°05'0 0.1
2017-Jun-21 03:46N 52°27' E 004°05'0 0.3
2017-Jun-21 03:22N 52°27' E 004°05'0 0.1
2017-Jun-21 02:55N 52°27' E 004°05'0 0.2
2017-Jun-21 02:28N 52°27' E 004°05'0 0.1
2017-Jun-21 01:58N 52°27' E 004°05'0 0.0
2017-Jun-21 01:28N 52°27' E 004°05'0 0.0
2017-Jun-21 00:52N 52°27' E 004°05'0 0.0
2017-Jun-21 00:28N 52°27' E 004°05'0 0.1
2017-Jun-20 23:59N 52°27' E 004°05'2 3.4
2017-Jun-20 23:30N 52°28' E 004°02'510.7
2017-Jun-20 23:00N 52°27' E 003°54'611.7
2017-Jun-20 22:30N 52°25' E 003°44'612.3
2017-Jun-20 22:00N 52°20' E 003°38'612.0
2017-Jun-20 21:30N 52°15' E 003°34'917.6
2017-Jun-20 21:00N 52°07' E 003°27'3 6.3
2017-Jun-20 20:30N 52°04' E 003°26'1019.6
2017-Jun-20 20:00N 51°54' E 003°28'0 0.0
2017-Jun-20 19:30N 51°54' E 003°28'0 1.0
2017-Jun-20 19:00N 51°54' E 003°28'0 0.7
2017-Jun-20 18:30N 51°54' E 003°29'0 0.0
2017-Jun-20 18:00N 51°54' E 003°29'0 0.0
2017-Jun-20 17:30N 51°54' E 003°29'0 0.0
2017-Jun-20 17:00N 51°54' E 003°29'0 0.0
2017-Jun-20 16:30N 51°54' E 003°29'0 0.0
2017-Jun-20 16:00N 51°54' E 003°29'0 0.0
2017-Jun-20 15:30N 51°54' E 003°29'0 0.0
2017-Jun-20 15:00N 51°54' E 003°29'0 0.0
2017-Jun-20 14:30N 51°54' E 003°29'0 0.0
2017-Jun-20 13:30N 51°54' E 003°29'0 0.3
2017-Jun-20 13:00N 51°54' E 003°29'0 0.1
2017-Jun-20 12:30N 51°55' E 003°29'0 0.0
2017-Jun-20 12:00N 51°55' E 003°29'0 0.0
2017-Jun-20 11:30N 51°55' E 003°29'0 0.0
2017-Jun-20 11:00N 51°55' E 003°29'0 0.0
2017-Jun-20 10:30N 51°55' E 003°29'0 0.0
2017-Jun-20 10:00N 51°55' E 003°29'0 0.0
2017-Jun-20 09:30N 51°55' E 003°29'0 0.1
2017-Jun-20 09:00N 51°54' E 003°29'0 0.2
2017-Jun-20 08:30N 51°54' E 003°29'0 0.1
2017-Jun-20 08:00N 51°54' E 003°29'0 0.0
2017-Jun-20 07:30N 51°54' E 003°29'0 0.0
2017-Jun-20 07:00N 51°54' E 003°29'0 0.0
2017-Jun-20 06:30N 51°54' E 003°29'0 0.0
2017-Jun-20 06:00N 51°54' E 003°29'0 0.0
2017-Jun-20 05:30N 51°54' E 003°29'0 0.0
2017-Jun-20 05:00N 51°54' E 003°29'0 0.0
2017-Jun-20 04:30N 51°54' E 003°29'0 0.0
2017-Jun-20 04:00N 51°54' E 003°29'0 0.0
2017-Jun-20 03:30N 51°54' E 003°29'0 0.0
2017-Jun-20 03:00N 51°54' E 003°29'0 0.0
2017-Jun-20 02:30N 51°54' E 003°29'0 0.1
2017-Jun-20 02:00N 51°54' E 003°29'0 0.1
2017-Jun-20 01:30N 51°54' E 003°29'0 0.1
2017-Jun-20 01:00N 51°55' E 003°29'0 0.1
2017-Jun-20 00:30N 51°55' E 003°29'0 0.1
2017-Jun-20 00:00N 51°55' E 003°29'0 0.1
2017-Jun-19 23:30N 51°55' E 003°29'0 0.0
2017-Jun-19 23:00N 51°55' E 003°29'0 0.0
2017-Jun-19 22:30N 51°55' E 003°29'0 0.0
2017-Jun-19 22:00N 51°55' E 003°29'0 0.0
2017-Jun-19 21:30N 51°55' E 003°29'0 0.1
2017-Jun-19 21:00N 51°55' E 003°29'0 0.1
2017-Jun-19 20:30N 51°55' E 003°29'0 0.2
2017-Jun-19 20:00N 51°54' E 003°29'0 0.2
2017-Jun-19 19:30N 51°54' E 003°29'0 0.0
2017-Jun-19 18:59N 51°54' E 003°29'0 0.0
2017-Jun-19 18:30N 51°54' E 003°29'0 0.0
2017-Jun-19 18:00N 51°54' E 003°29'0 0.0
2017-Jun-19 17:30N 51°54' E 003°29'0 0.0
2017-Jun-19 16:58N 51°54' E 003°29'0 0.0
2017-Jun-19 16:30N 51°54' E 003°29'0 0.0
2017-Jun-19 16:00N 51°54' E 003°29'0 0.0
2017-Jun-19 15:30N 51°54' E 003°29'0 0.0
2017-Jun-19 15:00N 51°54' E 003°29'0 0.0
2017-Jun-19 14:00N 51°54' E 003°29'0 0.0
2017-Jun-19 13:30N 51°54' E 003°29'0 0.0
2017-Jun-19 13:00N 51°54' E 003°29'0 0.2
2017-Jun-19 12:30N 51°54' E 003°29'0 0.2
2017-Jun-19 12:00N 51°55' E 003°29'0 0.1
2017-Jun-19 11:30N 51°55' E 003°29'0 0.0
2017-Jun-19 11:00N 51°55' E 003°29'0 0.0
2017-Jun-19 10:30N 51°55' E 003°29'0 0.0
2017-Jun-19 10:00N 51°55' E 003°29'0 0.0
2017-Jun-19 09:30N 51°55' E 003°29'0 0.0
2017-Jun-19 09:00N 51°55' E 003°29'0 0.0
2017-Jun-19 08:30N 51°55' E 003°29'0 0.0
2017-Jun-19 08:00N 51°55' E 003°29'0 0.1
2017-Jun-19 07:30N 51°55' E 003°29'0 0.3
2017-Jun-19 07:00N 51°54' E 003°29'0 0.1
2017-Jun-19 06:30N 51°54' E 003°29'0 0.1
2017-Jun-19 06:00N 51°54' E 003°29'0 0.0
2017-Jun-19 05:30N 51°54' E 003°29'0 0.0
2017-Jun-19 05:00N 51°54' E 003°29'0 0.0
2017-Jun-19 04:30N 51°54' E 003°29'0 0.0
2017-Jun-19 04:00N 51°54' E 003°29'0 0.0
2017-Jun-19 03:30N 51°54' E 003°29'0 0.0
2017-Jun-19 03:00N 51°54' E 003°29'0 0.0
2017-Jun-19 02:30N 51°54' E 003°29'0 0.0
2017-Jun-19 02:00N 51°54' E 003°29'0 0.0
2017-Jun-19 01:30N 51°54' E 003°29'0 0.0
2017-Jun-19 01:00N 51°54' E 003°29'0 0.0
2017-Jun-19 00:30N 51°54' E 003°29'0 0.1
2017-Jun-19 00:00N 51°54' E 003°29'0 0.1
2017-Jun-18 23:30N 51°55' E 003°29'0 0.1
2017-Jun-18 23:00N 51°55' E 003°29'0 0.0
2017-Jun-18 22:30N 51°55' E 003°29'0 0.0
2017-Jun-18 22:00N 51°55' E 003°29'0 0.0
2017-Jun-18 21:30N 51°55' E 003°29'0 0.0
2017-Jun-18 21:00N 51°55' E 003°29'0 0.0
2017-Jun-18 20:30N 51°55' E 003°29'0 0.0
2017-Jun-18 20:00N 51°55' E 003°29'0 0.0
2017-Jun-18 19:30N 51°55' E 003°29'0 0.1
2017-Jun-18 19:00N 51°54' E 003°29'0 0.2
2017-Jun-18 18:30N 51°54' E 003°29'0 0.1
2017-Jun-18 18:00N 51°54' E 003°29'0 0.0
2017-Jun-18 17:30N 51°54' E 003°29'0 0.0
2017-Jun-18 17:00N 51°54' E 003°29'0 0.0
2017-Jun-18 16:30N 51°54' E 003°29'0 0.0
2017-Jun-18 16:00N 51°54' E 003°29'0 0.0
2017-Jun-18 14:00N 51°54' E 003°29'0 0.0
2017-Jun-18 13:30N 51°54' E 003°29'0 0.0
2017-Jun-18 13:00N 51°54' E 003°29'0 0.1
2017-Jun-18 12:30N 51°54' E 003°29'0 0.2
2017-Jun-18 12:00N 51°55' E 003°29'0 0.1
2017-Jun-18 11:30N 51°55' E 003°29'0 0.0
2017-Jun-18 11:00N 51°55' E 003°29'0 0.0
2017-Jun-18 10:30N 51°55' E 003°29'0 0.0
2017-Jun-18 10:00N 51°55' E 003°29'0 0.0
2017-Jun-18 09:30N 51°55' E 003°29'0 0.0
2017-Jun-18 09:00N 51°55' E 003°29'0 0.0
2017-Jun-18 08:30N 51°55' E 003°29'0 0.0
2017-Jun-18 08:00N 51°55' E 003°29'0 0.0
2017-Jun-18 07:30N 51°55' E 003°29'0 0.0
2017-Jun-18 07:00N 51°55' E 003°29'0 0.0
2017-Jun-18 06:30N 51°55' E 003°29'0 0.3
2017-Jun-18 06:00N 51°54' E 003°29'0 0.1
2017-Jun-18 05:30N 51°54' E 003°29'0 0.0
2017-Jun-18 05:00N 51°54' E 003°29'0 0.0
2017-Jun-18 04:30N 51°54' E 003°29'0 0.0
2017-Jun-18 04:00N 51°54' E 003°29'0 0.0
2017-Jun-18 03:30N 51°54' E 003°29'0 0.0
2017-Jun-18 03:00N 51°54' E 003°29'0 0.0
2017-Jun-18 02:30N 51°54' E 003°29'0 0.0
2017-Jun-18 02:00N 51°54' E 003°29'0 0.0
2017-Jun-18 01:30N 51°54' E 003°29'0 0.0
2017-Jun-18 01:00N 51°54' E 003°29'0 0.1
2017-Jun-18 00:30N 51°54' E 003°29'0 0.2
2017-Jun-18 00:00N 51°55' E 003°29'0 0.0
2017-Jun-17 23:30N 51°55' E 003°29'0 0.1
2017-Jun-17 23:00N 51°55' E 003°29'0 0.1
2017-Jun-17 22:30N 51°55' E 003°29'0 0.0
2017-Jun-17 22:00N 51°55' E 003°29'0 0.0
2017-Jun-17 21:30N 51°55' E 003°29'0 0.0
2017-Jun-17 21:00N 51°55' E 003°29'0 0.0
2017-Jun-17 20:30N 51°55' E 003°29'0 0.0
2017-Jun-17 20:00N 51°55' E 003°29'0 0.0
2017-Jun-17 19:30N 51°55' E 003°29'0 0.0
2017-Jun-17 19:00N 51°55' E 003°29'0 0.0
2017-Jun-17 18:30N 51°55' E 003°29'0 0.0
2017-Jun-17 18:00N 51°55' E 003°29'0 0.1
2017-Jun-17 17:30N 51°55' E 003°29'0 0.1
2017-Jun-17 17:00N 51°54' E 003°29'0 0.2
2017-Jun-17 16:30N 51°54' E 003°29'0 0.1
2017-Jun-17 16:00N 51°54' E 003°29'0 0.0
2017-Jun-17 15:30N 51°54' E 003°29'0 0.0
2017-Jun-17 15:00N 51°54' E 003°29'0 0.0
2017-Jun-17 13:30N 51°54' E 003°29'0 0.1
2017-Jun-17 13:00N 51°54' E 003°29'0 0.0
2017-Jun-17 12:30N 51°54' E 003°29'0 0.0
2017-Jun-17 12:00N 51°54' E 003°29'0 0.1
2017-Jun-17 11:30N 51°54' E 003°29'0 0.1
2017-Jun-17 11:00N 51°54' E 003°29'0 0.1
2017-Jun-17 10:30N 51°54' E 003°29'0 0.1
2017-Jun-17 10:00N 51°55' E 003°29'0 0.1
2017-Jun-17 09:30N 51°55' E 003°29'0 0.0
2017-Jun-17 09:00N 51°55' E 003°29'0 0.0
2017-Jun-17 08:30N 51°55' E 003°29'0 0.0
2017-Jun-17 08:00N 51°55' E 003°29'0 0.0
2017-Jun-17 07:30N 51°55' E 003°29'0 0.0
2017-Jun-17 07:00N 51°55' E 003°29'0 0.0
2017-Jun-17 06:30N 51°55' E 003°29'0 0.0
2017-Jun-17 06:00N 51°55' E 003°29'0 0.1
2017-Jun-17 05:30N 51°54' E 003°29'0 0.0
2017-Jun-17 05:00N 51°54' E 003°29'0 0.1
2017-Jun-17 04:30N 51°54' E 003°29'0 0.1
2017-Jun-17 04:00N 51°54' E 003°29'0 0.1
2017-Jun-17 03:30N 51°54' E 003°29'0 0.1
2017-Jun-17 03:00N 51°54' E 003°29'0 0.0
2017-Jun-17 02:30N 51°54' E 003°29'0 0.0
2017-Jun-17 02:00N 51°54' E 003°29'0 0.0
2017-Jun-17 01:30N 51°54' E 003°29'0 0.0
2017-Jun-17 01:00N 51°54' E 003°29'0 0.0
2017-Jun-17 00:30N 51°54' E 003°29'0 0.0
2017-Jun-17 00:00N 51°54' E 003°29'0 0.2
2017-Jun-16 23:30N 51°55' E 003°29'0 0.1
2017-Jun-16 23:00N 51°55' E 003°29'0 0.0
2017-Jun-16 22:30N 51°55' E 003°29'0 0.0
2017-Jun-16 22:00N 51°55' E 003°29'0 0.0
2017-Jun-16 21:30N 51°55' E 003°29'0 0.0
2017-Jun-16 21:00N 51°55' E 003°29'0 0.0
2017-Jun-16 20:30N 51°55' E 003°29'0 0.0
2017-Jun-16 20:00N 51°55' E 003°29'0 0.0
2017-Jun-16 19:30N 51°55' E 003°29'0 0.0
2017-Jun-16 19:00N 51°55' E 003°29'0 0.0
2017-Jun-16 18:30N 51°55' E 003°29'0 0.0
2017-Jun-16 18:00N 51°55' E 003°29'0 0.0
2017-Jun-16 17:30N 51°55' E 003°29'0 0.1
2017-Jun-16 17:00N 51°54' E 003°29'0 0.1
2017-Jun-16 16:30N 51°54' E 003°29'0 0.0
2017-Jun-16 13:49N 51°54' E 003°29'0 0.0
2017-Jun-16 13:30N 51°54' E 003°29'0 0.0
2017-Jun-16 13:00N 51°54' E 003°29'0 0.0
2017-Jun-16 12:30N 51°54' E 003°29'0 0.0
2017-Jun-16 12:00N 51°54' E 003°29'0 0.1
2017-Jun-16 11:30N 51°54' E 003°29'0 0.0
2017-Jun-16 11:00N 51°54' E 003°29'0 0.1
2017-Jun-16 10:30N 51°54' E 003°29'0 0.0
2017-Jun-16 10:00N 51°54' E 003°29'0 0.1
2017-Jun-16 09:30N 51°54' E 003°29'0 0.0
2017-Jun-16 09:00N 51°54' E 003°29'0 0.0
2017-Jun-16 07:53N 51°54' E 003°29'0 0.0
2017-Jun-16 07:23N 51°54' E 003°29'0 0.0
2017-Jun-16 03:08N 51°54' E 003°29'0 0.0
2017-Jun-16 03:00N 51°54' E 003°29'0 0.1
2017-Jun-16 02:28N 51°54' E 003°29'0 0.1
2017-Jun-16 02:00N 51°54' E 003°29'0 0.0
2017-Jun-16 01:30N 51°54' E 003°29'0 0.1
2017-Jun-16 01:00N 51°54' E 003°29'0 0.0
2017-Jun-16 00:30N 51°54' E 003°29'0 0.0
2017-Jun-15 23:31N 51°54' E 003°29'0 0.0
2017-Jun-15 23:30N 51°54' E 003°29'0 0.1
2017-Jun-15 23:00N 51°54' E 003°29'0 0.1
2017-Jun-15 22:30N 51°54' E 003°29'0 0.1
2017-Jun-15 22:00N 51°55' E 003°29'0 0.0
2017-Jun-15 21:30N 51°55' E 003°29'0 0.1
2017-Jun-15 21:00N 51°55' E 003°29'0 0.0
2017-Jun-15 20:30N 51°55' E 003°29'0 0.0
2017-Jun-15 20:00N 51°55' E 003°29'0 0.0
2017-Jun-15 19:30N 51°55' E 003°29'0 0.1
2017-Jun-15 19:00N 51°55' E 003°29'0 0.0
2017-Jun-15 18:30N 51°55' E 003°29'0 0.0
2017-Jun-15 18:00N 51°55' E 003°29'0 0.0
2017-Jun-15 17:30N 51°55' E 003°29'0 0.1
2017-Jun-15 17:00N 51°55' E 003°29'0 0.1
2017-Jun-15 16:30N 51°55' E 003°29'0 0.0
2017-Jun-15 16:00N 51°55' E 003°29'0 0.0
2017-Jun-15 15:30N 51°55' E 003°29'0 0.0
2017-Jun-15 15:00N 51°55' E 003°29'0 0.1
2017-Jun-15 14:00N 51°54' E 003°29'0 0.1
2017-Jun-15 13:30N 51°54' E 003°29'0 0.0
2017-Jun-15 13:00N 51°54' E 003°29'0 0.0
2017-Jun-15 12:30N 51°54' E 003°29'0 0.0
2017-Jun-15 12:00N 51°54' E 003°29'0 0.0
2017-Jun-15 11:30N 51°54' E 003°29'0 0.1
2017-Jun-15 11:00N 51°54' E 003°29'0 0.1
2017-Jun-15 10:30N 51°54' E 003°29'0 0.2
2017-Jun-15 10:00N 51°54' E 003°29'0 0.0
2017-Jun-15 09:30N 51°54' E 003°29'0 0.0
2017-Jun-15 09:00N 51°55' E 003°29'0 0.1
2017-Jun-15 08:30N 51°55' E 003°29'0 0.1
2017-Jun-15 08:00N 51°55' E 003°29'0 0.0
2017-Jun-15 07:28N 51°55' E 003°29'0 0.0
2017-Jun-15 07:00N 51°55' E 003°29'0 0.0
2017-Jun-15 06:29N 51°55' E 003°29'0 0.9
2017-Jun-15 06:00N 51°55' E 003°29'3 6.2
2017-Jun-15 05:30N 51°55' E 003°24'612.5
2017-Jun-15 05:00N 51°54' E 003°14'713.0
2017-Jun-15 04:29N 51°52' E 003°03'613.1
2017-Jun-15 04:00N 51°50' E 002°54'813.0
2017-Jun-15 03:25N 51°47' E 002°42'512.5
2017-Jun-15 03:00N 51°44' E 002°36'612.7
2017-Jun-15 02:30N 51°39' E 002°29'612.4
2017-Jun-15 02:00N 51°34' E 002°22'612.1
2017-Jun-15 01:30N 51°30' E 002°16'611.5
2017-Jun-15 01:00N 51°25' E 002°10'611.1
2017-Jun-15 00:30N 51°20' E 002°08'510.9
2017-Jun-15 00:00N 51°15' E 002°05'5 9.6
2017-Jun-14 23:30N 51°12' E 001°60'5 9.8
2017-Jun-14 23:00N 51°09' E 001°53'5 9.5
2017-Jun-14 22:30N 51°07' E 001°46'5 9.3
2017-Jun-14 22:00N 51°04' E 001°41'5 9.1
2017-Jun-14 21:30N 51°00' E 001°36'5 9.3
2017-Jun-14 21:00N 50°57' E 001°31'5 9.7
2017-Jun-14 20:30N 50°53' E 001°27'510.2
2017-Jun-14 20:00N 50°48' E 001°24'510.6
2017-Jun-14 19:30N 50°43' E 001°22'510.2
2017-Jun-14 19:00N 50°39' E 001°17'3710.4
2017-Jun-14 15:30N 50°23' E 000°25'510.6
2017-Jun-14 15:00N 50°22' E 000°17'1111.1
2017-Jun-14 14:01N 50°19' E 000°00'611.8
2017-Jun-14 13:30N 50°17' W 000°09'612.2
2017-Jun-14 13:00N 50°16' W 000°18'612.8
2017-Jun-14 12:30N 50°14' W 000°28'713.3
2017-Jun-14 12:00N 50°12' W 000°38'713.7
2017-Jun-14 11:31N 50°10' W 000°48'713.8
2017-Jun-14 11:01N 50°09' W 000°58'714.1
2017-Jun-14 10:31N 50°07' W 001°09'714.1
2017-Jun-14 10:01N 50°05' W 001°19'713.9
2017-Jun-14 09:30N 50°03' W 001°30'713.5
2017-Jun-14 09:00N 50°02' W 001°40'613.0
2017-Jun-14 08:30N 50°00' W 001°50'612.5
2017-Jun-14 08:00N 49°58' W 001°59'711.6
2017-Jun-14 07:24N 49°56' W 002°10'510.9
2017-Jun-14 06:59N 49°55' W 002°17'610.4
2017-Jun-14 06:25N 49°54' W 002°26'410.1
2017-Jun-14 06:00N 49°53' W 002°32'5 9.9
2017-Jun-14 05:30N 49°52' W 002°39'5 9.8
2017-Jun-14 05:00N 49°50' W 002°47'5 9.6
2017-Jun-14 04:30N 49°49' W 002°54'5 9.5
2017-Jun-14 04:00N 49°47' W 003°01'5 9.7
2017-Jun-14 03:30N 49°45' W 003°07'5 9.8
2017-Jun-14 03:00N 49°42' W 003°14'510.1
2017-Jun-14 02:30N 49°40' W 003°20'510.4
2017-Jun-14 02:00N 49°38' W 003°27'510.4
2017-Jun-14 01:30N 49°35' W 003°34'510.5
2017-Jun-14 01:00N 49°32' W 003°41'510.5
2017-Jun-14 00:30N 49°29' W 003°48'510.3
2017-Jun-14 00:00N 49°27' W 003°55'510.8
2017-Jun-13 23:30N 49°24' W 004°02'510.9
2017-Jun-13 23:00N 49°21' W 004°09'611.0
2017-Jun-13 22:30N 49°19' W 004°17'811.2
2017-Jun-13 21:46N 49°15' W 004°28'311.4
2017-Jun-13 21:30N 49°13' W 004°32'611.7
2017-Jun-13 21:00N 49°10' W 004°39'611.8
2017-Jun-13 20:30N 49°07' W 004°47'612.1
2017-Jun-13 20:00N 49°04' W 004°55'612.2
2017-Jun-13 19:30N 49°01' W 005°03'612.3
2017-Jun-13 19:00N 48°57' W 005°11'612.3
2017-Jun-13 18:30N 48°54' W 005°18'612.5
2017-Jun-13 18:00N 48°50' W 005°26'612.3
2017-Jun-13 17:30N 48°47' W 005°34'612.1
2017-Jun-13 17:00N 48°42' W 005°40'612.5
2017-Jun-13 16:30N 48°37' W 005°44'612.4
2017-Jun-13 16:00N 48°31' W 005°49'611.5
2017-Jun-13 15:30N 48°26' W 005°53'2111.8
2017-Jun-13 13:43N 48°07' W 006°07'1111.4
2017-Jun-13 12:43N 47°57' W 006°16'1110.9
2017-Jun-13 11:43N 47°48' W 006°23'  
Track history (hours):
 
Tides and Currents Weather Stations Pressure Air Temp Water Temp Dewpoint Dewpoint Depression Visibility Wind Speed Wind Dir Waves Ship Positions

Elandra Spruce

Last reported at 2017-Jun-22 21:36 UTC. Time now 2017-Jun-26 19:00 UTC.
Position N 52°24' E 004°47'.

Length 183 m; draft 8 m.

Type: Tanker. MMSI: 538006719.

Date/timePositionNaut miles runAvg speedWind from/ knotsBaromVisibWave heightAir tempDewpointWater temp
2017-Jun-22 21:36N 52°24' E 004°47'0 0.0
2017-Jun-22 21:27N 52°24' E 004°47'0 0.0
2017-Jun-22 21:00N 52°24' E 004°47'0 0.0
2017-Jun-22 20:30N 52°24' E 004°47'0 0.4
2017-Jun-22 20:01N 52°24' E 004°47'2 3.9
2017-Jun-22 19:30N 52°26' E 004°45'4 7.5
2017-Jun-22 19:01N 52°28' E 004°39'2 3.6
2017-Jun-22 18:31N 52°28' E 004°36'0 0.7
2017-Jun-22 18:01N 52°28' E 004°36'4 8.4
2017-Jun-22 17:30N 52°28' E 004°29'0 0.3
2017-Jun-22 17:00N 52°28' E 004°29'1 2.1
2017-Jun-22 16:30N 52°28' E 004°31'4 8.5
2017-Jun-22 16:00N 52°29' E 004°24'4 8.4
2017-Jun-22 15:30N 52°29' E 004°17'4 8.7
2017-Jun-22 15:00N 52°29' E 004°10'3 6.9
2017-Jun-22 14:30N 52°27' E 004°05'0 0.1
2017-Jun-22 13:28N 52°27' E 004°05'0 0.0
2017-Jun-22 12:58N 52°27' E 004°05'0 0.0
2017-Jun-22 12:28N 52°27' E 004°05'0 0.0
2017-Jun-22 11:58N 52°27' E 004°05'0 0.0
2017-Jun-22 11:28N 52°27' E 004°05'0 0.0
2017-Jun-22 10:58N 52°27' E 004°05'0 0.0
2017-Jun-22 10:28N 52°27' E 004°05'0 0.3
2017-Jun-22 09:58N 52°27' E 004°05'0 0.1
2017-Jun-22 09:28N 52°27' E 004°05'0 0.0
2017-Jun-22 08:55N 52°27' E 004°05'0 0.0
2017-Jun-22 08:28N 52°27' E 004°05'0 0.0
2017-Jun-22 07:58N 52°27' E 004°05'0 0.0
2017-Jun-22 07:28N 52°27' E 004°05'0 0.0
2017-Jun-22 06:49N 52°27' E 004°05'0 0.0
2017-Jun-22 06:28N 52°27' E 004°05'0 0.1
2017-Jun-22 05:58N 52°27' E 004°05'0 0.2
2017-Jun-22 05:28N 52°27' E 004°05'0 0.0
2017-Jun-22 04:58N 52°27' E 004°05'0 0.0
2017-Jun-22 04:28N 52°27' E 004°05'0 0.0
2017-Jun-22 03:58N 52°27' E 004°05'0 0.1
2017-Jun-22 03:28N 52°27' E 004°05'0 0.0
2017-Jun-22 02:58N 52°27' E 004°05'0 0.0
2017-Jun-22 02:28N 52°27' E 004°05'0 0.0
2017-Jun-22 01:58N 52°27' E 004°05'0 0.0
2017-Jun-22 01:28N 52°27' E 004°05'0 0.0
2017-Jun-22 00:58N 52°27' E 004°05'0 0.0
2017-Jun-22 00:25N 52°27' E 004°05'0 0.0
2017-Jun-21 23:58N 52°27' E 004°05'0 0.0
2017-Jun-21 23:28N 52°27' E 004°05'0 0.1
2017-Jun-21 22:58N 52°27' E 004°05'0 0.1
2017-Jun-21 22:28N 52°27' E 004°05'0 0.1
2017-Jun-21 21:58N 52°27' E 004°05'0 0.0
2017-Jun-21 21:25N 52°27' E 004°05'0 0.1
2017-Jun-21 20:58N 52°27' E 004°05'0 0.0
2017-Jun-21 20:28N 52°27' E 004°05'0 0.1
2017-Jun-21 19:58N 52°27' E 004°05'0 0.0
2017-Jun-21 19:28N 52°27' E 004°05'0 0.1
2017-Jun-21 18:52N 52°27' E 004°05'0 0.0
2017-Jun-21 18:28N 52°27' E 004°05'0 0.0
2017-Jun-21 17:52N 52°27' E 004°05'0 0.0
2017-Jun-21 17:19N 52°27' E 004°05'0 0.1
2017-Jun-21 16:55N 52°27' E 004°05'0 0.1
2017-Jun-21 16:25N 52°27' E 004°05'0 0.1
2017-Jun-21 15:58N 52°27' E 004°05'0 0.0
2017-Jun-21 15:28N 52°27' E 004°05'0 0.1
2017-Jun-21 14:58N 52°27' E 004°05'0 0.0
2017-Jun-21 13:58N 52°27' E 004°05'0 0.0
2017-Jun-21 13:28N 52°27' E 004°05'0 0.0
2017-Jun-21 12:55N 52°27' E 004°05'0 0.0
2017-Jun-21 12:28N 52°27' E 004°05'0 0.0
2017-Jun-21 11:58N 52°27' E 004°05'0 0.0
2017-Jun-21 11:28N 52°27' E 004°05'0 0.1
2017-Jun-21 10:52N 52°27' E 004°05'0 0.2
2017-Jun-21 10:28N 52°27' E 004°05'0 0.1
2017-Jun-21 09:58N 52°27' E 004°05'0 0.1
2017-Jun-21 09:25N 52°27' E 004°05'0 0.0
2017-Jun-21 08:58N 52°27' E 004°05'0 0.0
2017-Jun-21 08:28N 52°27' E 004°05'0 0.0
2017-Jun-21 07:55N 52°27' E 004°05'0 0.0
2017-Jun-21 07:28N 52°27' E 004°05'0 0.0
2017-Jun-21 06:58N 52°27' E 004°05'0 0.0
2017-Jun-21 06:28N 52°27' E 004°05'0 0.0
2017-Jun-21 05:58N 52°27' E 004°05'0 0.0
2017-Jun-21 05:28N 52°27' E 004°05'0 0.1
2017-Jun-21 04:58N 52°27' E 004°05'0 0.0
2017-Jun-21 04:25N 52°27' E 004°05'0 0.1
2017-Jun-21 03:46N 52°27' E 004°05'0 0.3
2017-Jun-21 03:22N 52°27' E 004°05'0 0.1
2017-Jun-21 02:55N 52°27' E 004°05'0 0.2
2017-Jun-21 02:28N 52°27' E 004°05'0 0.1
2017-Jun-21 01:58N 52°27' E 004°05'0 0.0
2017-Jun-21 01:28N 52°27' E 004°05'0 0.0
2017-Jun-21 00:52N 52°27' E 004°05'0 0.0
2017-Jun-21 00:28N 52°27' E 004°05'0 0.1
2017-Jun-20 23:59N 52°27' E 004°05'2 3.4
2017-Jun-20 23:30N 52°28' E 004°02'510.7
2017-Jun-20 23:00N 52°27' E 003°54'611.7
2017-Jun-20 22:30N 52°25' E 003°44'612.3
2017-Jun-20 22:00N 52°20' E 003°38'612.0
2017-Jun-20 21:30N 52°15' E 003°34'917.6
2017-Jun-20 21:00N 52°07' E 003°27'3 6.3
2017-Jun-20 20:30N 52°04' E 003°26'1019.6
2017-Jun-20 20:00N 51°54' E 003°28'0 0.0
2017-Jun-20 19:30N 51°54' E 003°28'0 1.0
2017-Jun-20 19:00N 51°54' E 003°28'0 0.7
2017-Jun-20 18:30N 51°54' E 003°29'0 0.0
2017-Jun-20 18:00N 51°54' E 003°29'0 0.0
2017-Jun-20 17:30N 51°54' E 003°29'0 0.0
2017-Jun-20 17:00N 51°54' E 003°29'0 0.0
2017-Jun-20 16:30N 51°54' E 003°29'0 0.0
2017-Jun-20 16:00N 51°54' E 003°29'0 0.0
2017-Jun-20 15:30N 51°54' E 003°29'0 0.0
2017-Jun-20 15:00N 51°54' E 003°29'0 0.0
2017-Jun-20 14:30N 51°54' E 003°29'0 0.0
2017-Jun-20 13:30N 51°54' E 003°29'0 0.3
2017-Jun-20 13:00N 51°54' E 003°29'0 0.1
2017-Jun-20 12:30N 51°55' E 003°29'0 0.0
2017-Jun-20 12:00N 51°55' E 003°29'0 0.0
2017-Jun-20 11:30N 51°55' E 003°29'0 0.0
2017-Jun-20 11:00N 51°55' E 003°29'0 0.0
2017-Jun-20 10:30N 51°55' E 003°29'0 0.0
2017-Jun-20 10:00N 51°55' E 003°29'0 0.0
2017-Jun-20 09:30N 51°55' E 003°29'0 0.1
2017-Jun-20 09:00N 51°54' E 003°29'0 0.2
2017-Jun-20 08:30N 51°54' E 003°29'0 0.1
2017-Jun-20 08:00N 51°54' E 003°29'0 0.0
2017-Jun-20 07:30N 51°54' E 003°29'0 0.0
2017-Jun-20 07:00N 51°54' E 003°29'0 0.0
2017-Jun-20 06:30N 51°54' E 003°29'0 0.0
2017-Jun-20 06:00N 51°54' E 003°29'0 0.0
2017-Jun-20 05:30N 51°54' E 003°29'0 0.0
2017-Jun-20 05:00N 51°54' E 003°29'0 0.0
2017-Jun-20 04:30N 51°54' E 003°29'0 0.0
2017-Jun-20 04:00N 51°54' E 003°29'0 0.0
2017-Jun-20 03:30N 51°54' E 003°29'0 0.0
2017-Jun-20 03:00N 51°54' E 003°29'0 0.0
2017-Jun-20 02:30N 51°54' E 003°29'0 0.1
2017-Jun-20 02:00N 51°54' E 003°29'0 0.1
2017-Jun-20 01:30N 51°54' E 003°29'0 0.1
2017-Jun-20 01:00N 51°55' E 003°29'0 0.1
2017-Jun-20 00:30N 51°55' E 003°29'0 0.1
2017-Jun-20 00:00N 51°55' E 003°29'0 0.1
2017-Jun-19 23:30N 51°55' E 003°29'0 0.0
2017-Jun-19 23:00N 51°55' E 003°29'0 0.0
2017-Jun-19 22:30N 51°55' E 003°29'0 0.0
2017-Jun-19 22:00N 51°55' E 003°29'0 0.0
2017-Jun-19 21:30N 51°55' E 003°29'0 0.1
2017-Jun-19 21:00N 51°55' E 003°29'0 0.1
2017-Jun-19 20:30N 51°55' E 003°29'0 0.2
2017-Jun-19 20:00N 51°54' E 003°29'0 0.2
2017-Jun-19 19:30N 51°54' E 003°29'0 0.0
2017-Jun-19 18:59N 51°54' E 003°29'0 0.0
2017-Jun-19 18:30N 51°54' E 003°29'0 0.0
2017-Jun-19 18:00N 51°54' E 003°29'0 0.0
2017-Jun-19 17:30N 51°54' E 003°29'0 0.0
2017-Jun-19 16:58N 51°54' E 003°29'0 0.0
2017-Jun-19 16:30N 51°54' E 003°29'0 0.0
2017-Jun-19 16:00N 51°54' E 003°29'0 0.0
2017-Jun-19 15:30N 51°54' E 003°29'0 0.0
2017-Jun-19 15:00N 51°54' E 003°29'0 0.0
2017-Jun-19 14:00N 51°54' E 003°29'0 0.0
2017-Jun-19 13:30N 51°54' E 003°29'0 0.0
2017-Jun-19 13:00N 51°54' E 003°29'0 0.2
2017-Jun-19 12:30N 51°54' E 003°29'0 0.2
2017-Jun-19 12:00N 51°55' E 003°29'0 0.1
2017-Jun-19 11:30N 51°55' E 003°29'0 0.0
2017-Jun-19 11:00N 51°55' E 003°29'0 0.0
2017-Jun-19 10:30N 51°55' E 003°29'0 0.0
2017-Jun-19 10:00N 51°55' E 003°29'0 0.0
2017-Jun-19 09:30N 51°55' E 003°29'0 0.0
2017-Jun-19 09:00N 51°55' E 003°29'0 0.0
2017-Jun-19 08:30N 51°55' E 003°29'0 0.0
2017-Jun-19 08:00N 51°55' E 003°29'0 0.1
2017-Jun-19 07:30N 51°55' E 003°29'0 0.3
2017-Jun-19 07:00N 51°54' E 003°29'0 0.1
2017-Jun-19 06:30N 51°54' E 003°29'0 0.1
2017-Jun-19 06:00N 51°54' E 003°29'0 0.0
2017-Jun-19 05:30N 51°54' E 003°29'0 0.0
2017-Jun-19 05:00N 51°54' E 003°29'0 0.0
2017-Jun-19 04:30N 51°54' E 003°29'0 0.0
2017-Jun-19 04:00N 51°54' E 003°29'0 0.0
2017-Jun-19 03:30N 51°54' E 003°29'0 0.0
2017-Jun-19 03:00N 51°54' E 003°29'0 0.0
2017-Jun-19 02:30N 51°54' E 003°29'0 0.0
2017-Jun-19 02:00N 51°54' E 003°29'0 0.0
2017-Jun-19 01:30N 51°54' E 003°29'0 0.0
2017-Jun-19 01:00N 51°54' E 003°29'0 0.0
2017-Jun-19 00:30N 51°54' E 003°29'0 0.1
2017-Jun-19 00:00N 51°54' E 003°29'0 0.1
2017-Jun-18 23:30N 51°55' E 003°29'0 0.1
2017-Jun-18 23:00N 51°55' E 003°29'0 0.0
2017-Jun-18 22:30N 51°55' E 003°29'0 0.0
2017-Jun-18 22:00N 51°55' E 003°29'0 0.0
2017-Jun-18 21:30N 51°55' E 003°29'0 0.0
2017-Jun-18 21:00N 51°55' E 003°29'0 0.0
2017-Jun-18 20:30N 51°55' E 003°29'0 0.0
2017-Jun-18 20:00N 51°55' E 003°29'0 0.0
2017-Jun-18 19:30N 51°55' E 003°29'0 0.1
2017-Jun-18 19:00N 51°54' E 003°29'0 0.2
2017-Jun-18 18:30N 51°54' E 003°29'0 0.1
2017-Jun-18 18:00N 51°54' E 003°29'0 0.0
2017-Jun-18 17:30N 51°54' E 003°29'0 0.0
2017-Jun-18 17:00N 51°54' E 003°29'0 0.0
2017-Jun-18 16:30N 51°54' E 003°29'0 0.0
2017-Jun-18 16:00N 51°54' E 003°29'0 0.0
2017-Jun-18 14:00N 51°54' E 003°29'0 0.0
2017-Jun-18 13:30N 51°54' E 003°29'0 0.0
2017-Jun-18 13:00N 51°54' E 003°29'0 0.1
2017-Jun-18 12:30N 51°54' E 003°29'0 0.2
2017-Jun-18 12:00N 51°55' E 003°29'0 0.1
2017-Jun-18 11:30N 51°55' E 003°29'0 0.0
2017-Jun-18 11:00N 51°55' E 003°29'0 0.0
2017-Jun-18 10:30N 51°55' E 003°29'0 0.0
2017-Jun-18 10:00N 51°55' E 003°29'0 0.0
2017-Jun-18 09:30N 51°55' E 003°29'0 0.0
2017-Jun-18 09:00N 51°55' E 003°29'0 0.0
2017-Jun-18 08:30N 51°55' E 003°29'0 0.0
2017-Jun-18 08:00N 51°55' E 003°29'0 0.0
2017-Jun-18 07:30N 51°55' E 003°29'0 0.0
2017-Jun-18 07:00N 51°55' E 003°29'0 0.0
2017-Jun-18 06:30N 51°55' E 003°29'0 0.3
2017-Jun-18 06:00N 51°54' E 003°29'0 0.1
2017-Jun-18 05:30N 51°54' E 003°29'0 0.0
2017-Jun-18 05:00N 51°54' E 003°29'0 0.0
2017-Jun-18 04:30N 51°54' E 003°29'0 0.0
2017-Jun-18 04:00N 51°54' E 003°29'0 0.0
2017-Jun-18 03:30N 51°54' E 003°29'0 0.0
2017-Jun-18 03:00N 51°54' E 003°29'0 0.0
2017-Jun-18 02:30N 51°54' E 003°29'0 0.0
2017-Jun-18 02:00N 51°54' E 003°29'0 0.0
2017-Jun-18 01:30N 51°54' E 003°29'0 0.0
2017-Jun-18 01:00N 51°54' E 003°29'0 0.1
2017-Jun-18 00:30N 51°54' E 003°29'0 0.2
2017-Jun-18 00:00N 51°55' E 003°29'0 0.0
2017-Jun-17 23:30N 51°55' E 003°29'0 0.1
2017-Jun-17 23:00N 51°55' E 003°29'0 0.1
2017-Jun-17 22:30N 51°55' E 003°29'0 0.0
2017-Jun-17 22:00N 51°55' E 003°29'0 0.0
2017-Jun-17 21:30N 51°55' E 003°29'0 0.0
2017-Jun-17 21:00N 51°55' E 003°29'0 0.0
2017-Jun-17 20:30N 51°55' E 003°29'0 0.0
2017-Jun-17 20:00N 51°55' E 003°29'0 0.0
2017-Jun-17 19:30N 51°55' E 003°29'0 0.0
2017-Jun-17 19:00N 51°55' E 003°29'0 0.0
2017-Jun-17 18:30N 51°55' E 003°29'0 0.0
2017-Jun-17 18:00N 51°55' E 003°29'0 0.1
2017-Jun-17 17:30N 51°55' E 003°29'0 0.1
2017-Jun-17 17:00N 51°54' E 003°29'0 0.2
2017-Jun-17 16:30N 51°54' E 003°29'0 0.1
2017-Jun-17 16:00N 51°54' E 003°29'0 0.0
2017-Jun-17 15:30N 51°54' E 003°29'0 0.0
2017-Jun-17 15:00N 51°54' E 003°29'0 0.0
2017-Jun-17 13:30N 51°54' E 003°29'0 0.1
2017-Jun-17 13:00N 51°54' E 003°29'0 0.0
2017-Jun-17 12:30N 51°54' E 003°29'0 0.0
2017-Jun-17 12:00N 51°54' E 003°29'0 0.1
2017-Jun-17 11:30N 51°54' E 003°29'0 0.1
2017-Jun-17 11:00N 51°54' E 003°29'0 0.1
2017-Jun-17 10:30N 51°54' E 003°29'0 0.1
2017-Jun-17 10:00N 51°55' E 003°29'0 0.1
2017-Jun-17 09:30N 51°55' E 003°29'0 0.0
2017-Jun-17 09:00N 51°55' E 003°29'0 0.0
2017-Jun-17 08:30N 51°55' E 003°29'0 0.0
2017-Jun-17 08:00N 51°55' E 003°29'0 0.0
2017-Jun-17 07:30N 51°55' E 003°29'0 0.0
2017-Jun-17 07:00N 51°55' E 003°29'0 0.0
2017-Jun-17 06:30N 51°55' E 003°29'0 0.0
2017-Jun-17 06:00N 51°55' E 003°29'0 0.1
2017-Jun-17 05:30N 51°54' E 003°29'0 0.0
2017-Jun-17 05:00N 51°54' E 003°29'0 0.1
2017-Jun-17 04:30N 51°54' E 003°29'0 0.1
2017-Jun-17 04:00N 51°54' E 003°29'0 0.1
2017-Jun-17 03:30N 51°54' E 003°29'0 0.1
2017-Jun-17 03:00N 51°54' E 003°29'0 0.0
2017-Jun-17 02:30N 51°54' E 003°29'0 0.0
2017-Jun-17 02:00N 51°54' E 003°29'0 0.0
2017-Jun-17 01:30N 51°54' E 003°29'0 0.0
2017-Jun-17 01:00N 51°54' E 003°29'0 0.0
2017-Jun-17 00:30N 51°54' E 003°29'0 0.0
2017-Jun-17 00:00N 51°54' E 003°29'0 0.2
2017-Jun-16 23:30N 51°55' E 003°29'0 0.1
2017-Jun-16 23:00N 51°55' E 003°29'0 0.0
2017-Jun-16 22:30N 51°55' E 003°29'0 0.0
2017-Jun-16 22:00N 51°55' E 003°29'0 0.0
2017-Jun-16 21:30N 51°55' E 003°29'0 0.0
2017-Jun-16 21:00N 51°55' E 003°29'0 0.0
2017-Jun-16 20:30N 51°55' E 003°29'0 0.0
2017-Jun-16 20:00N 51°55' E 003°29'0 0.0
2017-Jun-16 19:30N 51°55' E 003°29'0 0.0
2017-Jun-16 19:00N 51°55' E 003°29'0 0.0
2017-Jun-16 18:30N 51°55' E 003°29'0 0.0
2017-Jun-16 18:00N 51°55' E 003°29'0 0.0
2017-Jun-16 17:30N 51°55' E 003°29'0 0.1
2017-Jun-16 17:00N 51°54' E 003°29'0 0.1
2017-Jun-16 16:30N 51°54' E 003°29'0 0.0
2017-Jun-16 13:49N 51°54' E 003°29'0 0.0
2017-Jun-16 13:30N 51°54' E 003°29'0 0.0
2017-Jun-16 13:00N 51°54' E 003°29'0 0.0
2017-Jun-16 12:30N 51°54' E 003°29'0 0.0
2017-Jun-16 12:00N 51°54' E 003°29'0 0.1
2017-Jun-16 11:30N 51°54' E 003°29'0 0.0
2017-Jun-16 11:00N 51°54' E 003°29'0 0.1
2017-Jun-16 10:30N 51°54' E 003°29'0 0.0
2017-Jun-16 10:00N 51°54' E 003°29'0 0.1
2017-Jun-16 09:30N 51°54' E 003°29'0 0.0
2017-Jun-16 09:00N 51°54' E 003°29'0 0.0
2017-Jun-16 07:53N 51°54' E 003°29'0 0.0
2017-Jun-16 07:23N 51°54' E 003°29'0 0.0
2017-Jun-16 03:08N 51°54' E 003°29'0 0.0
2017-Jun-16 03:00N 51°54' E 003°29'0 0.1
2017-Jun-16 02:28N 51°54' E 003°29'0 0.1
2017-Jun-16 02:00N 51°54' E 003°29'0 0.0
2017-Jun-16 01:30N 51°54' E 003°29'0 0.1
2017-Jun-16 01:00N 51°54' E 003°29'0 0.0
2017-Jun-16 00:30N 51°54' E 003°29'0 0.0
2017-Jun-15 23:31N 51°54' E 003°29'0 0.0
2017-Jun-15 23:30N 51°54' E 003°29'0 0.1
2017-Jun-15 23:00N 51°54' E 003°29'0 0.1
2017-Jun-15 22:30N 51°54' E 003°29'0 0.1
2017-Jun-15 22:00N 51°55' E 003°29'0 0.0
2017-Jun-15 21:30N 51°55' E 003°29'0 0.1
2017-Jun-15 21:00N 51°55' E 003°29'0 0.0
2017-Jun-15 20:30N 51°55' E 003°29'0 0.0
2017-Jun-15 20:00N 51°55' E 003°29'0 0.0
2017-Jun-15 19:30N 51°55' E 003°29'0 0.1
2017-Jun-15 19:00N 51°55' E 003°29'0 0.0
2017-Jun-15 18:30N 51°55' E 003°29'0 0.0
2017-Jun-15 18:00N 51°55' E 003°29'0 0.0
2017-Jun-15 17:30N 51°55' E 003°29'0 0.1
2017-Jun-15 17:00N 51°55' E 003°29'0 0.1
2017-Jun-15 16:30N 51°55' E 003°29'0 0.0
2017-Jun-15 16:00N 51°55' E 003°29'0 0.0
2017-Jun-15 15:30N 51°55' E 003°29'0 0.0
2017-Jun-15 15:00N 51°55' E 003°29'0 0.1
2017-Jun-15 14:00N 51°54' E 003°29'0 0.1
2017-Jun-15 13:30N 51°54' E 003°29'0 0.0
2017-Jun-15 13:00N 51°54' E 003°29'0 0.0
2017-Jun-15 12:30N 51°54' E 003°29'0 0.0
2017-Jun-15 12:00N 51°54' E 003°29'0 0.0
2017-Jun-15 11:30N 51°54' E 003°29'0 0.1
2017-Jun-15 11:00N 51°54' E 003°29'0 0.1
2017-Jun-15 10:30N 51°54' E 003°29'0 0.2
2017-Jun-15 10:00N 51°54' E 003°29'0 0.0
2017-Jun-15 09:30N 51°54' E 003°29'0 0.0
2017-Jun-15 09:00N 51°55' E 003°29'0 0.1
2017-Jun-15 08:30N 51°55' E 003°29'0 0.1
2017-Jun-15 08:00N 51°55' E 003°29'0 0.0
2017-Jun-15 07:28N 51°55' E 003°29'0 0.0
2017-Jun-15 07:00N 51°55' E 003°29'0 0.0
2017-Jun-15 06:29N 51°55' E 003°29'0 0.9
2017-Jun-15 06:00N 51°55' E 003°29'3 6.2
2017-Jun-15 05:30N 51°55' E 003°24'612.5
2017-Jun-15 05:00N 51°54' E 003°14'713.0
2017-Jun-15 04:29N 51°52' E 003°03'613.1
2017-Jun-15 04:00N 51°50' E 002°54'813.0
2017-Jun-15 03:25N 51°47' E 002°42'512.5
2017-Jun-15 03:00N 51°44' E 002°36'612.7
2017-Jun-15 02:30N 51°39' E 002°29'612.4
2017-Jun-15 02:00N 51°34' E 002°22'612.1
2017-Jun-15 01:30N 51°30' E 002°16'611.5
2017-Jun-15 01:00N 51°25' E 002°10'611.1
2017-Jun-15 00:30N 51°20' E 002°08'510.9
2017-Jun-15 00:00N 51°15' E 002°05'5 9.6
2017-Jun-14 23:30N 51°12' E 001°60'5 9.8
2017-Jun-14 23:00N 51°09' E 001°53'5 9.5
2017-Jun-14 22:30N 51°07' E 001°46'5 9.3
2017-Jun-14 22:00N 51°04' E 001°41'5 9.1
2017-Jun-14 21:30N 51°00' E 001°36'5 9.3
2017-Jun-14 21:00N 50°57' E 001°31'5 9.7
2017-Jun-14 20:30N 50°53' E 001°27'510.2
2017-Jun-14 20:00N 50°48' E 001°24'510.6
2017-Jun-14 19:30N 50°43' E 001°22'510.2
2017-Jun-14 19:00N 50°39' E 001°17'3710.4
2017-Jun-14 15:30N 50°23' E 000°25'510.6
2017-Jun-14 15:00N 50°22' E 000°17'1111.1
2017-Jun-14 14:01N 50°19' E 000°00'611.8
2017-Jun-14 13:30N 50°17' W 000°09'612.2
2017-Jun-14 13:00N 50°16' W 000°18'612.8
2017-Jun-14 12:30N 50°14' W 000°28'713.3
2017-Jun-14 12:00N 50°12' W 000°38'713.7
2017-Jun-14 11:31N 50°10' W 000°48'713.8
2017-Jun-14 11:01N 50°09' W 000°58'714.1
2017-Jun-14 10:31N 50°07' W 001°09'714.1
2017-Jun-14 10:01N 50°05' W 001°19'713.9
2017-Jun-14 09:30N 50°03' W 001°30'713.5
2017-Jun-14 09:00N 50°02' W 001°40'613.0
2017-Jun-14 08:30N 50°00' W 001°50'612.5
2017-Jun-14 08:00N 49°58' W 001°59'711.6
2017-Jun-14 07:24N 49°56' W 002°10'510.9
2017-Jun-14 06:59N 49°55' W 002°17'610.4
2017-Jun-14 06:25N 49°54' W 002°26'410.1
2017-Jun-14 06:00N 49°53' W 002°32'5 9.9
2017-Jun-14 05:30N 49°52' W 002°39'5 9.8
2017-Jun-14 05:00N 49°50' W 002°47'5 9.6
2017-Jun-14 04:30N 49°49' W 002°54'5 9.5
2017-Jun-14 04:00N 49°47' W 003°01'5 9.7
2017-Jun-14 03:30N 49°45' W 003°07'5 9.8
2017-Jun-14 03:00N 49°42' W 003°14'510.1
2017-Jun-14 02:30N 49°40' W 003°20'510.4
2017-Jun-14 02:00N 49°38' W 003°27'510.4
2017-Jun-14 01:30N 49°35' W 003°34'510.5
2017-Jun-14 01:00N 49°32' W 003°41'510.5
2017-Jun-14 00:30N 49°29' W 003°48'510.3
2017-Jun-14 00:00N 49°27' W 003°55'510.8
2017-Jun-13 23:30N 49°24' W 004°02'510.9
2017-Jun-13 23:00N 49°21' W 004°09'611.0
2017-Jun-13 22:30N 49°19' W 004°17'811.2
2017-Jun-13 21:46N 49°15' W 004°28'311.4
2017-Jun-13 21:30N 49°13' W 004°32'611.7
2017-Jun-13 21:00N 49°10' W 004°39'611.8
2017-Jun-13 20:30N 49°07' W 004°47'612.1
2017-Jun-13 20:00N 49°04' W 004°55'612.2
2017-Jun-13 19:30N 49°01' W 005°03'612.3
2017-Jun-13 19:00N 48°57' W 005°11'612.3
2017-Jun-13 18:30N 48°54' W 005°18'612.5
2017-Jun-13 18:00N 48°50' W 005°26'612.3
2017-Jun-13 17:30N 48°47' W 005°34'612.1
2017-Jun-13 17:00N 48°42' W 005°40'612.5
2017-Jun-13 16:30N 48°37' W 005°44'612.4
2017-Jun-13 16:00N 48°31' W 005°49'611.5
2017-Jun-13 15:30N 48°26' W 005°53'2111.8
2017-Jun-13 13:43N 48°07' W 006°07'1111.4
2017-Jun-13 12:43N 47°57' W 006°16'1110.9
2017-Jun-13 11:43N 47°48' W 006°23'  

Dump ship's entire track history